createdAt,value
2023-03-05T00:01:22.709Z,98437.25
2023-03-05T00:03:49.267Z,98443.22
2023-03-05T00:06:17.378Z,98437.25
2023-03-05T00:08:43.914Z,98435.56
2023-03-05T00:11:12.020Z,98429.63
2023-03-05T00:13:39.345Z,98430.44
2023-03-05T00:16:08.354Z,98431.28
2023-03-05T00:18:35.050Z,98433.00
2023-03-05T00:21:01.658Z,98425.34
2023-03-05T00:23:28.225Z,98431.31
2023-03-05T00:25:54.713Z,98422.78
2023-03-05T00:28:21.073Z,98427.88
2023-03-05T00:30:47.524Z,98427.03
2023-03-05T00:33:14.292Z,98428.72
2023-03-05T00:35:46.382Z,98432.97
2023-03-05T00:38:13.408Z,98430.44
2023-03-05T00:40:41.539Z,98426.19
2023-03-05T00:43:08.817Z,98431.31
2023-03-05T00:45:35.284Z,98426.19
2023-03-05T00:48:03.704Z,98426.22
2023-03-05T00:50:30.139Z,98422.81
2023-03-05T00:52:56.522Z,98421.13
2023-03-05T00:55:22.947Z,98419.41
2023-03-05T00:57:49.294Z,98419.41
2023-03-05T01:00:16.336Z,98413.47
2023-03-05T01:02:42.857Z,98415.94
2023-03-05T01:05:13.884Z,98418.47
2023-03-05T01:07:41.101Z,98406.66
2023-03-05T01:10:08.603Z,98407.50
2023-03-05T01:12:35.280Z,98412.56
2023-03-05T01:15:02.316Z,98411.72
2023-03-05T01:17:28.739Z,98404.03
2023-03-05T01:19:55.626Z,98405.72
2023-03-05T01:22:21.980Z,98404.91
2023-03-05T01:24:48.378Z,98399.00
2023-03-05T01:27:14.744Z,98398.16
2023-03-05T01:29:41.150Z,98391.38
2023-03-05T01:32:07.656Z,98391.38
2023-03-05T01:34:36.593Z,98393.06
2023-03-05T01:37:03.079Z,98387.13
2023-03-05T01:39:29.485Z,98389.69
2023-03-05T01:41:55.882Z,98387.94
2023-03-05T01:44:24.971Z,98384.56
2023-03-05T01:46:51.677Z,98382.03
2023-03-05T01:49:21.039Z,98382.84
2023-03-05T01:52:02.706Z,98378.59
2023-03-05T01:54:50.640Z,98376.03
2023-03-05T01:57:23.150Z,98379.44
2023-03-05T01:59:53.825Z,98370.09
2023-03-05T02:02:22.123Z,98369.31
2023-03-05T02:04:54.670Z,98359.13
2023-03-05T02:07:21.480Z,98364.19
2023-03-05T02:09:47.827Z,98358.25
2023-03-05T02:12:15.235Z,98364.22
2023-03-05T02:14:45.125Z,98359.97
2023-03-05T02:17:12.596Z,98358.25
2023-03-05T02:19:52.340Z,98354.84
2023-03-05T02:22:20.347Z,98352.31
2023-03-05T02:24:47.016Z,98351.50
2023-03-05T02:27:14.527Z,98347.22
2023-03-05T02:29:44.644Z,98347.25
2023-03-05T02:32:12.114Z,98342.16
2023-03-05T02:34:38.702Z,98343.03
2023-03-05T02:37:09.027Z,98342.16
2023-03-05T02:39:35.434Z,98332.81
2023-03-05T02:42:01.863Z,98333.63
2023-03-05T02:44:28.289Z,98331.09
2023-03-05T02:46:54.733Z,98328.63
2023-03-05T02:49:21.089Z,98326.88
2023-03-05T02:51:47.472Z,98330.25
2023-03-05T02:54:13.849Z,98319.22
2023-03-05T02:56:40.260Z,98314.06
2023-03-05T02:59:06.605Z,98317.41
2023-03-05T03:01:33.113Z,98302.22
2023-03-05T03:03:59.546Z,98308.97
2023-03-05T03:06:26.050Z,98297.09
2023-03-05T03:08:52.438Z,98303.91
2023-03-05T03:11:18.846Z,98303.88
2023-03-05T03:13:45.220Z,98303.88
2023-03-05T03:16:14.361Z,98295.44
2023-03-05T03:18:41.423Z,98292.91
2023-03-05T03:21:08.138Z,98298.81
2023-03-05T03:23:34.799Z,98289.53
2023-03-05T03:26:01.160Z,98295.47
2023-03-05T03:28:27.514Z,98287.00
2023-03-05T03:30:53.944Z,98291.22
2023-03-05T03:33:20.387Z,98287.00
2023-03-05T03:35:46.835Z,98279.38
2023-03-05T03:38:13.873Z,98285.31
2023-03-05T03:40:41.745Z,98285.34
2023-03-05T03:43:08.625Z,98279.41
2023-03-05T03:45:34.995Z,98280.22
2023-03-05T03:48:01.379Z,98278.56
2023-03-05T03:50:27.849Z,98278.50
2023-03-05T03:52:54.275Z,98281.06
2023-03-05T03:55:20.633Z,98274.28
2023-03-05T03:57:47.010Z,98278.47
2023-03-05T04:00:14.039Z,98265.78
2023-03-05T04:02:40.583Z,98274.28
2023-03-05T04:05:07.597Z,98271.72
2023-03-05T04:07:34.029Z,98275.09
2023-03-05T04:10:00.411Z,98270.00
2023-03-05T04:12:26.799Z,98271.66
2023-03-05T04:14:53.193Z,98267.38
2023-03-05T04:17:19.636Z,98264.84
2023-03-05T04:19:46.037Z,98258.94
2023-03-05T04:22:14.463Z,98272.47
2023-03-05T04:24:41.857Z,98258.94
2023-03-05T04:27:08.655Z,98253.00
2023-03-05T04:29:35.429Z,98252.16
2023-03-05T04:32:02.704Z,98252.19
2023-03-05T04:34:29.103Z,98258.13
2023-03-05T04:36:55.699Z,98257.28
2023-03-05T04:39:22.455Z,98253.03
2023-03-05T04:41:48.894Z,98252.22
2023-03-05T04:44:15.308Z,98250.53
2023-03-05T04:46:41.839Z,98252.22
2023-03-05T04:49:08.238Z,98246.28
2023-03-05T04:51:34.665Z,98240.34
2023-03-05T04:54:01.025Z,98241.19
2023-03-05T04:56:27.536Z,98241.19
2023-03-05T04:58:53.909Z,98239.50
2023-03-05T05:01:20.483Z,98241.25
2023-03-05T05:03:46.994Z,98241.25
2023-03-05T05:06:13.371Z,98237.81
2023-03-05T05:08:39.791Z,98241.25
2023-03-05T05:11:08.009Z,98239.53
2023-03-05T05:13:35.258Z,98236.97
2023-03-05T05:16:02.153Z,98235.25
2023-03-05T05:18:28.699Z,98239.44
2023-03-05T05:20:55.054Z,98237.75
2023-03-05T05:23:21.503Z,98230.97
2023-03-05T05:25:59.463Z,98236.09
2023-03-05T05:28:26.576Z,98231.88
2023-03-05T05:30:53.304Z,98233.56
2023-03-05T05:33:20.690Z,98225.91
2023-03-05T05:35:47.162Z,98229.28
2023-03-05T05:38:13.659Z,98233.50
2023-03-05T05:40:40.642Z,98232.69
2023-03-05T05:43:07.059Z,98237.78
2023-03-05T05:45:33.580Z,98231.81
2023-03-05T05:48:00.179Z,98236.91
2023-03-05T05:50:27.303Z,98233.53
2023-03-05T05:52:53.740Z,98240.34
2023-03-05T05:55:20.150Z,98235.22
2023-03-05T05:57:46.664Z,98239.47
2023-03-05T06:00:14.568Z,98233.53
2023-03-05T06:02:42.483Z,98235.22
2023-03-05T06:05:12.271Z,98235.25
2023-03-05T06:07:38.712Z,98235.22
2023-03-05T06:10:05.804Z,98236.91
2023-03-05T06:12:32.189Z,98236.09
2023-03-05T06:14:58.581Z,98226.75
2023-03-05T06:17:30.269Z,98230.16
2023-03-05T06:19:58.255Z,98231.88
2023-03-05T06:22:24.677Z,98234.44
2023-03-05T06:24:51.069Z,98233.56
2023-03-05T06:27:17.425Z,98234.44
2023-03-05T06:29:43.779Z,98243.78
2023-03-05T06:32:10.430Z,98236.97
2023-03-05T06:34:36.810Z,98243.75
2023-03-05T06:37:03.271Z,98243.78
2023-03-05T06:39:31.468Z,98242.06
2023-03-05T06:41:58.114Z,98242.06
2023-03-05T06:44:25.594Z,98245.50
2023-03-05T06:46:52.033Z,98242.09
2023-03-05T06:49:18.455Z,98246.34
2023-03-05T06:51:44.846Z,98242.09
2023-03-05T06:54:14.266Z,98240.41
2023-03-05T06:56:43.616Z,98242.09
2023-03-05T06:59:11.650Z,98238.72
2023-03-05T07:01:38.309Z,98237.00
2023-03-05T07:04:05.903Z,98247.19
2023-03-05T07:06:34.681Z,98243.81
2023-03-05T07:09:01.461Z,98235.38
2023-03-05T07:11:28.411Z,98243.84
2023-03-05T07:13:54.872Z,98239.66
2023-03-05T07:16:24.393Z,98236.31
2023-03-05T07:18:51.639Z,98242.25
2023-03-05T07:21:22.344Z,98238.88
2023-03-05T07:23:50.132Z,98230.44
2023-03-05T07:26:17.014Z,98237.25
2023-03-05T07:28:43.652Z,98232.16
2023-03-05T07:31:16.371Z,98238.09
2023-03-05T07:33:42.842Z,98232.19
2023-03-05T07:36:10.536Z,98233.06
2023-03-05T07:38:37.034Z,98222.00
2023-03-05T07:41:09.211Z,98227.97
2023-03-05T07:43:35.714Z,98228.00
2023-03-05T07:46:11.255Z,98225.44
2023-03-05T07:48:38.547Z,98223.72
2023-03-05T07:51:08.081Z,98225.44
2023-03-05T07:53:34.917Z,98231.41
2023-03-05T07:56:01.310Z,98228.81
2023-03-05T07:58:27.787Z,98233.91
2023-03-05T08:00:54.239Z,98222.06
2023-03-05T08:03:20.661Z,98232.22
2023-03-05T08:05:47.110Z,98232.25
2023-03-05T08:08:13.584Z,98216.97
2023-03-05T08:10:40.010Z,98232.25
2023-03-05T08:13:06.784Z,98217.81
2023-03-05T08:15:33.757Z,98225.44
2023-03-05T08:18:00.386Z,98220.38
2023-03-05T08:20:27.056Z,98211.91
2023-03-05T08:22:53.501Z,98215.31
2023-03-05T08:25:20.036Z,98220.41
2023-03-05T08:27:47.510Z,98215.31
2023-03-05T08:30:17.769Z,98215.28
2023-03-05T08:32:44.557Z,98205.97
2023-03-05T08:35:12.054Z,98210.22
2023-03-05T08:37:38.456Z,98208.50
2023-03-05T08:40:05.445Z,98210.19
2023-03-05T08:42:31.919Z,98202.53
2023-03-05T08:44:58.320Z,98210.19
2023-03-05T08:47:26.596Z,98208.50
2023-03-05T08:49:55.577Z,98205.97
2023-03-05T08:52:22.595Z,98209.34
2023-03-05T08:54:49.374Z,98206.78
2023-03-05T08:57:15.903Z,98207.66
2023-03-05T08:59:42.265Z,98209.34
2023-03-05T09:02:12.049Z,98197.47
2023-03-05T09:04:38.594Z,98194.09
2023-03-05T09:07:05.617Z,98206.81
2023-03-05T09:09:33.031Z,98199.16
2023-03-05T09:12:00.156Z,98202.56
2023-03-05T09:14:28.305Z,98197.47
2023-03-05T09:16:55.655Z,98194.94
2023-03-05T09:19:22.087Z,98199.16
2023-03-05T09:21:48.476Z,98203.41
2023-03-05T09:24:14.875Z,98200.03
2023-03-05T09:26:42.446Z,98200.00
2023-03-05T09:29:09.562Z,98198.31
2023-03-05T09:31:37.194Z,98190.69
2023-03-05T09:34:05.278Z,98188.13
2023-03-05T09:36:32.388Z,98185.59
2023-03-05T09:38:59.096Z,98183.03
2023-03-05T09:41:39.319Z,98186.44
2023-03-05T09:44:18.484Z,98178.78
2023-03-05T09:46:54.931Z,98175.41
2023-03-05T09:49:33.796Z,98177.09
2023-03-05T09:52:07.383Z,98180.50
2023-03-05T09:54:43.151Z,98177.94
2023-03-05T09:57:18.348Z,98172.84
2023-03-05T09:59:58.944Z,98174.50
2023-03-05T10:02:34.086Z,98172.78
2023-03-05T10:05:12.771Z,98171.94
2023-03-05T10:07:43.611Z,98167.69
2023-03-05T10:10:14.341Z,98171.06
2023-03-05T10:12:43.824Z,98159.19
2023-03-05T10:15:16.559Z,98164.22
2023-03-05T10:17:58.021Z,98161.69
2023-03-05T10:20:30.705Z,98158.28
2023-03-05T10:23:24.740Z,98154.00
2023-03-05T10:26:28.295Z,98150.53
2023-03-05T10:29:03.437Z,98155.63
2023-03-05T10:31:40.338Z,98149.66
2023-03-05T10:34:35.627Z,98147.91
2023-03-05T10:37:39.101Z,98143.59
2023-03-05T10:40:09.839Z,98142.66
2023-03-05T10:42:41.039Z,98135.88
2023-03-05T10:45:22.763Z,98136.69
2023-03-05T10:47:52.232Z,98139.22
2023-03-05T10:50:24.047Z,98138.28
2023-03-05T10:53:19.683Z,98129.00
2023-03-05T10:55:46.068Z,98122.16
2023-03-05T10:58:14.850Z,98125.56
2023-03-05T11:00:57.495Z,98117.88
2023-03-05T11:03:24.045Z,98121.41
2023-03-05T11:06:00.109Z,98118.91
2023-03-05T11:08:36.587Z,98103.63
2023-03-05T11:11:16.908Z,98108.78
2023-03-05T11:14:08.607Z,98111.41
2023-03-05T11:16:47.024Z,98113.13
2023-03-05T11:19:29.953Z,98102.97
2023-03-05T11:22:21.006Z,98101.31
2023-03-05T11:25:17.466Z,98091.09
2023-03-05T11:27:52.007Z,98082.56
2023-03-05T11:30:29.416Z,98080.88
2023-03-05T11:33:10.967Z,98074.84
2023-03-05T11:35:41.981Z,98070.47
2023-03-05T11:38:18.820Z,98064.41
2023-03-05T11:40:46.830Z,98066.75
2023-03-05T11:43:16.555Z,98063.97
2023-03-05T11:45:44.772Z,98064.66
2023-03-05T11:48:37.447Z,98054.38
2023-03-05T11:51:15.744Z,98050.78
2023-03-05T11:53:44.715Z,98046.28
2023-03-05T11:56:18.955Z,98046.13
2023-03-05T11:58:52.114Z,98034.16
2023-03-05T12:01:24.237Z,98038.38
2023-03-05T12:03:52.446Z,98030.53
2023-03-05T12:06:34.309Z,98020.16
2023-03-05T12:09:09.628Z,98019.56
2023-03-05T12:11:36.834Z,98017.44
2023-03-05T12:14:37.400Z,98019.19
2023-03-05T12:17:15.860Z,98019.34
2023-03-05T12:19:48.544Z,98016.75
2023-03-05T12:22:22.744Z,98016.97
2023-03-05T12:24:50.090Z,98007.44
2023-03-05T12:27:32.224Z,98003.81
2023-03-05T12:30:01.601Z,97992.00
2023-03-05T12:32:35.149Z,98000.63
2023-03-05T12:35:04.274Z,97999.06
2023-03-05T12:37:31.105Z,97989.91
2023-03-05T12:40:22.455Z,97990.13
2023-03-05T12:42:54.982Z,97986.75
2023-03-05T12:45:24.179Z,97987.69
2023-03-05T12:47:56.777Z,97980.06
2023-03-05T12:50:29.496Z,97974.91
2023-03-05T12:53:13.426Z,97978.44
2023-03-05T12:55:57.052Z,97972.53
2023-03-05T12:58:42.137Z,97978.56
2023-03-05T13:01:11.710Z,97971.16
2023-03-05T13:04:00.954Z,97973.63
2023-03-05T13:06:34.088Z,97966.03
2023-03-05T13:09:05.428Z,97968.63
2023-03-05T13:11:35.067Z,97964.47
2023-03-05T13:14:02.740Z,97956.00
2023-03-05T13:16:38.696Z,97958.53
2023-03-05T13:19:20.894Z,97963.75
2023-03-05T13:22:11.611Z,97962.06
2023-03-05T13:24:38.099Z,97962.00
2023-03-05T13:27:29.775Z,97958.63
2023-03-05T13:29:56.156Z,97955.19
2023-03-05T13:32:28.776Z,97958.56
2023-03-05T13:34:58.036Z,97956.00
2023-03-05T13:37:27.168Z,97950.97
2023-03-05T13:40:41.271Z,97938.88
2023-03-05T13:43:13.441Z,97938.88
2023-03-05T13:45:40.071Z,97935.44
2023-03-05T13:48:07.350Z,97938.72
2023-03-05T13:50:37.672Z,97940.50
2023-03-05T13:53:24.544Z,97930.16
2023-03-05T13:55:53.768Z,97930.28
2023-03-05T13:58:47.505Z,97931.88
2023-03-05T14:01:36.871Z,97920.09
2023-03-05T14:04:08.440Z,97925.19
2023-03-05T14:07:03.444Z,97922.69
2023-03-05T14:09:31.670Z,97913.28
2023-03-05T14:12:04.724Z,97913.34
2023-03-05T14:14:36.329Z,97902.28
2023-03-05T14:17:35.261Z,97911.00
2023-03-05T14:20:28.494Z,97897.34
2023-03-05T14:23:00.165Z,97897.34
2023-03-05T14:25:36.396Z,97903.38
2023-03-05T14:28:05.716Z,97901.66
2023-03-05T14:30:35.075Z,97896.50
2023-03-05T14:33:03.435Z,97883.56
2023-03-05T14:35:30.433Z,97882.75
2023-03-05T14:37:58.712Z,97881.06
2023-03-05T14:40:36.464Z,97886.25
2023-03-05T14:43:07.120Z,97874.41
2023-03-05T14:45:36.942Z,97876.16
2023-03-05T14:48:06.551Z,97872.84
2023-03-05T14:50:44.426Z,97879.72
2023-03-05T14:53:17.124Z,97875.50
2023-03-05T14:55:44.690Z,97873.84
2023-03-05T14:58:14.183Z,97868.66
2023-03-05T15:00:41.922Z,97861.75
2023-03-05T15:03:12.704Z,97864.50
2023-03-05T15:05:40.742Z,97867.13
2023-03-05T15:08:14.487Z,97861.19
2023-03-05T15:10:40.894Z,97851.91
2023-03-05T15:13:07.311Z,97852.81
2023-03-05T15:15:33.761Z,97854.50
2023-03-05T15:18:01.309Z,97850.25
2023-03-05T15:20:32.115Z,97848.63
2023-03-05T15:22:58.906Z,97842.69
2023-03-05T15:25:26.722Z,97836.84
2023-03-05T15:27:53.140Z,97834.34
2023-03-05T15:30:25.796Z,97830.06
2023-03-05T15:32:57.178Z,97825.94
2023-03-05T15:37:56.660Z,97822.63
2023-03-05T15:40:23.072Z,97816.66
2023-03-05T15:42:50.235Z,97826.94
2023-03-05T15:45:16.714Z,97815.06
2023-03-05T15:47:43.127Z,97813.44
2023-03-05T15:50:10.128Z,97807.47
2023-03-05T15:52:36.610Z,97804.16
2023-03-05T15:55:03.671Z,97808.38
2023-03-05T15:57:30.102Z,97800.75
2023-03-05T15:59:56.582Z,97793.16
2023-03-05T16:02:24.632Z,97800.78
2023-03-05T16:04:51.016Z,97790.63
2023-03-05T16:07:17.545Z,97790.59
2023-03-05T16:09:48.224Z,97784.69
2023-03-05T16:12:20.069Z,97770.31
2023-03-05T16:14:47.020Z,97772.91
2023-03-05T16:17:13.803Z,97772.03
2023-03-05T16:19:44.090Z,97777.16
2023-03-05T16:22:10.472Z,97775.47
2023-03-05T16:24:36.984Z,97783.97
2023-03-05T16:27:04.700Z,97777.22
2023-03-05T16:29:32.445Z,97773.84
2023-03-05T16:32:02.207Z,97779.75
2023-03-05T16:34:28.637Z,97773.75
2023-03-05T16:36:55.065Z,97766.97
2023-03-05T16:39:22.280Z,97769.59
2023-03-05T16:41:50.204Z,97765.38
2023-03-05T16:44:16.611Z,97769.63
2023-03-05T16:46:47.163Z,97764.53
2023-03-05T16:49:13.561Z,97763.72
2023-03-05T16:51:39.963Z,97767.06
2023-03-05T16:54:07.830Z,97763.66
2023-03-05T16:56:35.411Z,97761.16
2023-03-05T16:59:01.799Z,97766.28
2023-03-05T17:01:30.239Z,97759.50
2023-03-05T17:04:00.526Z,97755.28
2023-03-05T17:06:29.290Z,97762.13
2023-03-05T17:08:56.173Z,97754.50
2023-03-05T17:11:22.606Z,97763.84
2023-03-05T17:13:49.345Z,97763.88
2023-03-05T17:16:18.169Z,97753.72
2023-03-05T17:18:44.997Z,97753.72
2023-03-05T17:21:12.167Z,97752.88
2023-03-05T17:23:39.393Z,97746.94
2023-03-05T17:26:15.536Z,97752.09
2023-03-05T17:28:42.396Z,97751.25
2023-03-05T17:31:08.861Z,97742.78
2023-03-05T17:33:36.045Z,97745.34
2023-03-05T17:36:03.067Z,97740.25
2023-03-05T17:38:30.360Z,97747.03
2023-03-05T17:40:56.919Z,97745.34
2023-03-05T17:43:23.331Z,97745.34
2023-03-05T17:45:49.849Z,97753.78
2023-03-05T17:48:16.425Z,97754.66
2023-03-05T17:50:44.980Z,97749.59
2023-03-05T17:53:11.549Z,97748.72
2023-03-05T17:55:38.864Z,97750.44
2023-03-05T17:58:05.267Z,97754.69
2023-03-05T18:00:32.102Z,97740.28
2023-03-05T18:02:59.279Z,97751.31
2023-03-05T18:05:26.635Z,97745.41
2023-03-05T18:07:54.823Z,97754.75
2023-03-05T18:10:24.203Z,97747.97
2023-03-05T18:12:50.968Z,97749.63
2023-03-05T18:15:20.322Z,97747.09
2023-03-05T18:17:46.707Z,97743.72
2023-03-05T18:20:49.040Z,97751.34
2023-03-05T18:23:15.808Z,97756.44
2023-03-05T18:25:42.462Z,97753.06
2023-03-05T18:28:11.508Z,97749.66
2023-03-05T18:30:40.451Z,97744.59
2023-03-05T18:33:07.065Z,97735.31
2023-03-05T18:35:33.939Z,97737.00
2023-03-05T18:38:00.598Z,97732.75
2023-03-05T18:40:29.799Z,97729.38
2023-03-05T18:42:58.707Z,97733.63
2023-03-05T18:45:25.124Z,97729.41
2023-03-05T18:47:54.104Z,97731.97
2023-03-05T18:50:22.129Z,97733.63
2023-03-05T18:52:48.527Z,97731.94
2023-03-05T18:55:20.098Z,97736.19
2023-03-05T18:57:46.614Z,97732.81
2023-03-05T19:00:15.031Z,97736.19
2023-03-05T19:02:41.546Z,97737.06
2023-03-05T19:05:08.683Z,97745.53
2023-03-05T19:07:35.273Z,97731.16
2023-03-05T19:10:07.351Z,97741.31
2023-03-05T19:12:45.483Z,97728.56
2023-03-05T19:15:13.101Z,97731.13
2023-03-05T19:17:39.564Z,97725.25
2023-03-05T19:20:07.731Z,97721.00
2023-03-05T19:22:34.698Z,97715.91
2023-03-05T19:25:01.688Z,97715.06
2023-03-05T19:27:28.652Z,97718.47
2023-03-05T19:29:55.402Z,97710.00
2023-03-05T19:32:21.987Z,97714.25
2023-03-05T19:34:49.240Z,97715.97
2023-03-05T19:37:16.154Z,97704.94
2023-03-05T19:39:42.627Z,97707.47
2023-03-05T19:42:09.003Z,97710.00
2023-03-05T19:44:35.575Z,97706.63
2023-03-05T19:47:02.159Z,97704.91
2023-03-05T19:49:28.559Z,97700.72
2023-03-05T19:51:55.173Z,97702.41
2023-03-05T19:54:23.017Z,97703.25
2023-03-05T19:56:52.322Z,97700.72
2023-03-05T19:59:21.131Z,97697.28
2023-03-05T20:01:48.842Z,97695.63
2023-03-05T20:04:18.469Z,97699.03
2023-03-05T20:06:45.076Z,97693.06
2023-03-05T20:09:11.582Z,97693.06
2023-03-05T20:11:38.454Z,97689.72
2023-03-05T20:14:05.166Z,97685.47
2023-03-05T20:16:37.715Z,97685.47
2023-03-05T20:19:06.118Z,97688.84
2023-03-05T20:21:38.975Z,97688.00
2023-03-05T20:24:09.908Z,97685.44
2023-03-05T20:26:37.772Z,97685.47
2023-03-05T20:29:04.922Z,97686.34
2023-03-05T20:31:37.015Z,97689.75
2023-03-05T20:34:08.796Z,97681.25
2023-03-05T20:36:35.700Z,97687.22
2023-03-05T20:39:03.563Z,97690.63
2023-03-05T20:41:31.261Z,97690.63
2023-03-05T20:43:57.917Z,97685.56
2023-03-05T20:46:27.640Z,97681.31
2023-03-05T20:48:57.583Z,97683.00
2023-03-05T20:51:27.335Z,97681.34
2023-03-05T20:53:58.089Z,97685.59
2023-03-05T20:56:27.802Z,97673.72
2023-03-05T20:58:55.450Z,97671.19
2023-03-05T21:01:22.378Z,97677.97
2023-03-05T21:03:49.601Z,97666.97
2023-03-05T21:06:16.582Z,97670.34
2023-03-05T21:08:43.736Z,97664.44
2023-03-05T21:11:11.443Z,97668.69
2023-03-05T21:13:38.209Z,97658.50
2023-03-05T21:16:11.031Z,97655.16
2023-03-05T21:18:37.395Z,97658.53
2023-03-05T21:21:03.942Z,97658.56
2023-03-05T21:23:30.339Z,97654.31
2023-03-05T21:25:56.798Z,97654.31
2023-03-05T21:28:23.631Z,97656.88
2023-03-05T21:30:52.706Z,97650.94
2023-03-05T21:33:21.514Z,97656.03
2023-03-05T21:35:48.165Z,97646.72
2023-03-05T21:38:14.810Z,97639.06
2023-03-05T21:40:45.331Z,97633.16
2023-03-05T21:43:12.959Z,97631.50
2023-03-05T21:45:40.345Z,97624.75
2023-03-05T21:48:06.941Z,97627.28
2023-03-05T21:50:34.858Z,97619.66
2023-03-05T21:53:02.938Z,97614.56
2023-03-05T21:55:46.311Z,97614.59
2023-03-05T21:58:12.854Z,97614.56
2023-03-05T22:00:39.256Z,97601.88
2023-03-05T22:03:05.627Z,97604.44
2023-03-05T22:05:32.037Z,97599.34
2023-03-05T22:07:58.396Z,97598.53
2023-03-05T22:10:24.910Z,97601.06
2023-03-05T22:13:11.435Z,97595.97
2023-03-05T22:15:45.587Z,97596.81
2023-03-05T22:18:13.897Z,97587.53
2023-03-05T22:20:40.689Z,97589.22
2023-03-05T22:23:07.763Z,97587.53
2023-03-05T22:25:34.813Z,97588.41
2023-03-05T22:28:01.346Z,97579.09
2023-03-05T22:30:27.935Z,97584.97
2023-03-05T22:32:54.335Z,97589.25
2023-03-05T22:35:21.009Z,97583.34
2023-03-05T22:37:47.496Z,97584.19
2023-03-05T22:40:16.959Z,97579.94
2023-03-05T22:42:44.241Z,97573.19
2023-03-05T22:45:12.227Z,97570.66
2023-03-05T22:47:38.804Z,97569.81
2023-03-05T22:50:05.955Z,97563.03
2023-03-05T22:52:32.688Z,97561.38
2023-03-05T22:55:00.613Z,97561.38
2023-03-05T22:57:27.074Z,97560.50
2023-03-05T22:59:53.456Z,97556.28
2023-03-05T23:02:19.869Z,97557.97
2023-03-05T23:04:53.014Z,97552.03
2023-03-05T23:07:21.881Z,97543.56
2023-03-05T23:09:57.292Z,97552.03
2023-03-05T23:12:25.672Z,97545.22
2023-03-05T23:14:52.234Z,97536.75
2023-03-05T23:17:18.747Z,97547.75
2023-03-05T23:19:45.398Z,97537.63
2023-03-05T23:22:13.484Z,97527.44
2023-03-05T23:24:40.520Z,97535.84
2023-03-05T23:27:08.183Z,97524.88
2023-03-05T23:29:47.085Z,97530.78
2023-03-05T23:32:13.649Z,97525.72
2023-03-05T23:34:40.049Z,97522.34
2023-03-05T23:37:06.668Z,97519.81
2023-03-05T23:39:33.040Z,97520.63
2023-03-05T23:41:59.406Z,97515.56
2023-03-05T23:44:25.802Z,97519.81
2023-03-05T23:46:52.165Z,97514.78
2023-03-05T23:49:18.617Z,97512.22
2023-03-05T23:51:45.003Z,97512.25
2023-03-05T23:54:11.358Z,97508.00
2023-03-05T23:56:37.743Z,97509.69
2023-03-05T23:59:04.113Z,97506.31
